Time;durP1;ratioP1;P1;durP2;ratioP2;P2;SDS_P1;SDS_P2;PMS_P1;PMS_P2;Temp;Humidity;BMP_temperature;BMP_pressure;BME280_temperature;BME280_humidity;BME280_pressure;Samples;Min_cycle;Max_cycle;Signal;HPM_P1;HPM_P2
2022/02/28 00:01:11;;;;;;;9.17;8.30;;;;;;;0.08;89.66;102045.41;5053314;28;20179;-73
2022/02/28 00:03:37;;;;;;;9.97;8.47;;;;;;;0.23;89.00;102046.06;5053096;28;20309;-73
2022/02/28 00:06:03;;;;;;;10.83;8.23;;;;;;;0.25;88.81;102049.38;5053308;28;20254;-75
2022/02/28 00:08:28;;;;;;;11.47;8.53;;;;;;;0.42;88.92;102064.09;5035062;28;20182;-74
2022/02/28 00:10:54;;;;;;;13.07;9.30;;;;;;;0.38;88.49;102052.09;5053120;28;20544;-73
2022/02/28 00:13:19;;;;;;;8.53;7.67;;;;;;;0.45;87.82;102060.19;5052794;28;20199;-73
2022/02/28 00:15:45;;;;;;;8.73;7.83;;;;;;;0.50;87.55;102047.78;5052858;28;20194;-73
2022/02/28 00:18:10;;;;;;;8.63;7.73;;;;;;;0.37;86.66;102050.44;5052882;28;20200;-75
2022/02/28 00:20:35;;;;;;;9.77;8.50;;;;;;;0.27;86.53;102047.31;5052811;28;20266;-75
2022/02/28 00:23:01;;;;;;;15.10;9.63;;;;;;;-0.05;87.50;102035.44;5052906;28;20184;-75
2022/02/28 00:25:26;;;;;;;16.53;8.50;;;;;;;0.00;88.44;102038.38;5052845;28;20183;-75
2022/02/28 00:27:53;;;;;;;8.10;7.37;;;;;;;0.19;88.58;102040.28;5052354;28;20182;-74
2022/02/28 00:30:19;;;;;;;10.00;8.13;;;;;;;0.25;88.95;102033.25;5052816;28;20256;-75
2022/02/28 00:32:44;;;;;;;12.40;8.43;;;;;;;0.17;89.10;102041.50;5052605;28;20684;-75
2022/02/28 00:35:10;;;;;;;9.47;8.43;;;;;;;0.35;88.91;102049.00;5052622;28;20229;-75
2022/02/28 00:37:36;;;;;;;8.43;7.40;;;;;;;0.27;88.62;102047.31;5052443;28;20650;-75
2022/02/28 00:40:03;;;;;;;11.73;7.90;;;;;;;0.05;89.07;102037.75;5052326;28;20666;-75
2022/02/28 00:42:28;;;;;;;12.73;8.40;;;;;;;0.01;89.86;102039.19;5052281;28;20179;-74
2022/02/28 00:44:53;;;;;;;9.87;8.50;;;;;;;0.11;90.18;102031.56;5052580;28;20187;-75
2022/02/28 00:47:19;;;;;;;10.73;8.23;;;;;;;0.13;90.29;102040.25;5052170;28;20178;-76
2022/02/28 00:49:44;;;;;;;9.50;8.23;;;;;;;0.03;90.65;102029.91;5052004;28;20186;-75
2022/02/28 00:52:10;;;;;;;10.93;8.13;;;;;;;0.12;90.89;102030.53;5051815;28;20274;-75
2022/02/28 00:54:35;;;;;;;11.37;9.30;;;;;;;0.18;90.89;102030.56;5052035;28;20175;-75
2022/02/28 00:57:01;;;;;;;12.00;8.43;;;;;;;0.12;90.57;102028.66;5052021;28;20179;-73
2022/02/28 00:59:26;;;;;;;11.47;9.33;;;;;;;0.08;90.63;102026.59;5052374;28;20197;-74
2022/02/28 01:01:52;;;;;;;13.87;8.73;;;;;;;0.19;89.81;102023.31;5051996;28;20167;-75
2022/02/28 01:04:18;;;;;;;11.47;9.77;;;;;;;0.05;89.83;102016.25;5052038;28;20175;-75
2022/02/28 01:06:43;;;;;;;11.93;9.33;;;;;;;-0.13;91.19;102014.97;5051758;28;20168;-73
2022/02/28 01:09:08;;;;;;;12.03;8.50;;;;;;;0.12;91.39;102017.91;5051740;28;20176;-72
2022/02/28 01:11:34;;;;;;;11.40;9.60;;;;;;;-0.21;91.56;102004.41;5051772;28;20552;-75
2022/02/28 01:14:00;;;;;;;14.37;8.47;;;;;;;-0.11;91.81;102002.16;5051875;28;20253;-75
2022/02/28 01:16:26;;;;;;;10.37;9.27;;;;;;;-0.33;92.19;101988.03;5051692;28;20788;-75
2022/02/28 01:18:52;;;;;;;13.17;9.07;;;;;;;-0.50;93.11;101993.97;5051571;28;20254;-75
2022/02/28 01:21:17;;;;;;;12.23;9.57;;;;;;;-0.49;94.24;101999.13;5051673;28;20179;-74
2022/02/28 01:23:43;;;;;;;11.53;8.67;;;;;;;-0.62;94.76;101988.31;5051563;28;20175;-75
2022/02/28 01:26:09;;;;;;;13.20;9.37;;;;;;;-0.63;95.54;101984.81;5051571;28;20260;-75
2022/02/28 01:28:34;;;;;;;12.10;9.20;;;;;;;-0.70;95.28;101981.28;5051436;28;20242;-75
2022/02/28 01:31:00;;;;;;;8.93;8.03;;;;;;;-0.70;95.67;101989.34;5051544;28;20536;-75
2022/02/28 01:33:25;;;;;;;10.83;8.30;;;;;;;-0.57;95.79;101985.06;5051643;28;20242;-75
2022/02/28 01:35:51;;;;;;;12.07;8.80;;;;;;;-0.64;95.62;101985.84;5051498;28;20179;-75
2022/02/28 01:38:16;;;;;;;11.63;8.80;;;;;;;-0.60;95.48;101986.28;5051125;28;20215;-74
2022/02/28 01:40:41;;;;;;;13.43;9.50;;;;;;;-0.74;95.98;101976.50;5051244;28;20654;-74
2022/02/28 01:43:07;;;;;;;11.20;8.77;;;;;;;-0.84;96.43;101973.38;5051435;28;20171;-75
2022/02/28 01:45:33;;;;;;;9.47;7.70;;;;;;;-0.88;96.84;101980.97;5051281;28;20198;-75
2022/02/28 01:47:59;;;;;;;12.50;9.43;;;;;;;-0.76;96.70;101984.75;5051085;28;20258;-75
2022/02/28 01:50:26;;;;;;;8.73;7.43;;;;;;;-0.72;96.43;101982.53;5050845;28;20183;-74
2022/02/28 01:52:52;;;;;;;8.73;7.60;;;;;;;-0.71;96.64;101982.31;5051028;28;20207;-74
2022/02/28 01:55:20;;;;;;;13.17;7.67;;;;;;;-0.67;95.74;101978.19;5051227;28;20705;-75
2022/02/28 01:57:46;;;;;;;9.93;7.57;;;;;;;-0.60;95.90;101989.78;5050854;28;20677;-75
2022/02/28 02:00:24;;;;;;;15.23;9.23;;;;;;;-0.58;95.26;101980.69;5051004;28;20172;-75
2022/02/28 02:02:49;;;;;;;10.67;8.63;;;;;;;-0.54;95.08;101973.94;5051098;28;20171;-75
2022/02/28 02:05:15;;;;;;;9.23;8.20;;;;;;;-0.30;94.65;101989.50;5050373;28;20211;-75
2022/02/28 02:07:40;;;;;;;8.60;7.57;;;;;;;-0.20;93.25;101981.06;5032905;28;20784;-75
2022/02/28 02:10:08;;;;;;;8.67;6.90;;;;;;;-0.23;92.07;101986.84;5050966;28;20186;-75
2022/02/28 02:12:35;;;;;;;7.40;6.13;;;;;;;-0.26;91.93;101980.03;5050717;28;20206;-75
2022/02/28 02:15:00;;;;;;;13.57;7.73;;;;;;;-0.32;91.22;101975.44;5050711;28;20175;-75
2022/02/28 02:17:26;;;;;;;10.27;6.87;;;;;;;-0.34;91.08;101972.13;5050615;28;20182;-75
2022/02/28 02:19:53;;;;;;;7.43;5.93;;;;;;;-0.51;92.04;101970.84;5050702;28;20632;-75
2022/02/28 02:22:20;;;;;;;8.80;7.70;;;;;;;-0.61;92.72;101963.16;5050682;28;20187;-75
2022/02/28 02:24:46;;;;;;;8.67;7.57;;;;;;;-0.56;92.91;101967.94;5050991;28;20445;-75
2022/02/28 02:27:11;;;;;;;8.00;7.13;;;;;;;-0.60;93.27;101968.31;5050635;28;20189;-76
2022/02/28 02:29:37;;;;;;;10.00;7.50;;;;;;;-0.70;93.29;101964.38;5050667;28;20623;-75
2022/02/28 02:32:17;;;;;;;10.07;7.43;;;;;;;-0.54;93.84;101973.94;5050406;28;20238;-75
2022/02/28 02:34:42;;;;;;;8.93;7.10;;;;;;;-0.46;93.64;101979.09;5050658;28;20207;-75
2022/02/28 02:37:08;;;;;;;7.87;7.07;;;;;;;-0.53;93.73;101979.09;5050393;28;20327;-76
2022/02/28 02:39:38;;;;;;;10.30;7.23;;;;;;;-0.63;93.19;101968.72;5050517;28;20221;-75
2022/02/28 02:42:04;;;;;;;8.30;7.50;;;;;;;-0.52;93.28;101975.38;5050431;28;20178;-75
2022/02/28 02:44:33;;;;;;;10.73;8.03;;;;;;;-0.44;93.37;101974.34;5050507;28;20209;-75
2022/02/28 02:46:59;;;;;;;10.10;7.37;;;;;;;-0.43;93.15;101976.03;5050363;28;20171;-75
2022/02/28 02:49:24;;;;;;;7.30;6.57;;;;;;;-0.46;93.11;101976.41;5050505;28;20179;-75
2022/02/28 02:51:50;;;;;;;8.63;7.30;;;;;;;-0.45;92.73;101961.97;5050359;28;20184;-75
2022/02/28 02:54:15;;;;;;;8.33;6.90;;;;;;;-0.39;92.79;101971.91;5050280;28;20215;-75
2022/02/28 02:56:41;;;;;;;8.17;7.27;;;;;;;-0.48;92.04;101971.25;5050176;28;20210;-75
2022/02/28 02:59:07;;;;;;;11.23;7.63;;;;;;;-0.55;91.93;101965.03;5050216;28;20202;-75
2022/02/28 03:01:32;;;;;;;9.33;7.83;;;;;;;-0.54;92.95;101966.69;5050314;28;20673;-75
2022/02/28 03:03:58;;;;;;;8.00;7.20;;;;;;;-0.26;92.21;101965.78;5050415;28;20178;-75
2022/02/28 03:06:24;;;;;;;8.53;7.60;;;;;;;-0.24;92.00;101964.53;5050237;28;20178;-75
2022/02/28 03:08:50;;;;;;;8.27;6.90;;;;;;;-0.15;90.60;101968.66;5050111;28;20187;-75
2022/02/28 03:11:15;;;;;;;10.57;7.97;;;;;;;-0.10;90.40;101974.28;5050028;28;20651;-75
2022/02/28 03:13:41;;;;;;;10.93;7.80;;;;;;;-0.13;90.33;101969.31;5050309;28;20215;-76
2022/02/28 03:16:06;;;;;;;8.30;7.33;;;;;;;-0.11;90.53;101974.50;5050165;28;20179;-76
2022/02/28 03:18:31;;;;;;;9.60;7.17;;;;;;;-0.26;90.47;101965.78;5053805;28;20175;-75
2022/02/28 03:20:57;;;;;;;11.97;7.27;;;;;;;-0.14;90.39;101966.84;5054018;28;20198;-76
2022/02/28 03:23:24;;;;;;;9.40;7.70;;;;;;;-0.13;89.85;101965.81;5053976;28;20179;-75
2022/02/28 03:25:50;;;;;;;6.73;6.13;;;;;;;-0.21;88.89;101971.34;5035773;28;20202;-75
2022/02/28 03:28:16;;;;;;;6.40;5.77;;;;;;;-0.38;88.99;101971.72;5053521;28;20244;-74
2022/02/28 03:30:42;;;;;;;8.57;7.03;;;;;;;-0.48;88.79;101957.84;5053679;28;20179;-76
2022/02/28 03:33:07;;;;;;;7.50;6.67;;;;;;;-0.68;90.03;101955.09;5053766;28;20685;-75
2022/02/28 03:35:33;;;;;;;7.10;5.97;;;;;;;-0.85;91.21;101951.09;5053714;28;20202;-75
2022/02/28 03:37:58;;;;;;;8.97;7.30;;;;;;;-1.09;92.44;101943.50;5053399;28;20254;-75
2022/02/28 03:40:24;;;;;;;9.70;7.13;;;;;;;-1.19;93.69;101949.22;5053584;28;20266;-75
2022/02/28 03:42:49;;;;;;;10.20;7.77;;;;;;;-1.28;94.65;101943.19;5053581;28;20205;-76
2022/02/28 03:45:15;;;;;;;7.80;7.00;;;;;;;-1.26;95.35;101951.88;5053760;28;20215;-76
2022/02/28 03:47:40;;;;;;;7.80;7.03;;;;;;;-1.02;95.86;101945.19;5053439;28;20179;-75
2022/02/28 03:50:06;;;;;;;9.53;7.23;;;;;;;-1.04;95.47;101957.16;5053241;28;20267;-76
2022/02/28 03:52:31;;;;;;;10.27;8.50;;;;;;;-1.20;95.86;101952.94;5053196;28;20654;-76
2022/02/28 03:54:57;;;;;;;9.10;7.50;;;;;;;-1.01;95.91;101962.97;5053299;28;20175;-75
2022/02/28 03:57:22;;;;;;;9.13;8.17;;;;;;;-0.73;95.75;101970.94;5053446;28;20171;-75
2022/02/28 03:59:47;;;;;;;8.53;7.73;;;;;;;-0.64;94.89;101977.81;5053178;28;20198;-75
2022/02/28 04:02:13;;;;;;;8.47;7.40;;;;;;;-0.69;93.83;101972.22;5053167;28;20615;-76
2022/02/28 04:04:39;;;;;;;7.77;6.97;;;;;;;-0.65;94.43;101973.47;5053751;28;20266;-75
2022/02/28 04:07:05;;;;;;;8.20;7.40;;;;;;;-0.51;93.78;101977.03;5034908;28;20270;-77
2022/02/28 04:09:34;;;;;;;7.77;6.93;;;;;;;-0.44;93.47;101980.56;5053064;28;20171;-76
2022/02/28 04:12:00;;;;;;;8.30;7.50;;;;;;;-0.55;93.32;101977.63;5053067;28;20568;-75
2022/02/28 04:14:26;;;;;;;7.93;7.23;;;;;;;-0.48;93.01;101987.38;5035303;28;20640;-75
2022/02/28 04:16:51;;;;;;;7.77;6.97;;;;;;;-0.43;92.48;101978.72;5052818;28;20207;-76
2022/02/28 04:19:17;;;;;;;10.73;7.47;;;;;;;-0.45;91.41;101978.91;5052910;28;20199;-75
2022/02/28 04:21:42;;;;;;;14.27;8.00;;;;;;;-0.63;91.46;101970.56;5052600;28;20175;-76
2022/02/28 04:24:07;;;;;;;11.33;8.17;;;;;;;-0.57;91.58;101975.16;5052996;28;20615;-76
2022/02/28 04:26:35;;;;;;;11.73;8.93;;;;;;;-0.56;91.08;101970.63;5052601;28;20199;-76
2022/02/28 04:29:00;;;;;;;15.87;8.40;;;;;;;-0.46;91.34;101965.69;5052057;28;20539;-75
2022/02/28 04:31:25;;;;;;;10.07;7.80;;;;;;;-0.40;91.49;101967.59;5052624;28;20175;-75
2022/02/28 04:33:51;;;;;;;10.13;7.80;;;;;;;-0.85;91.69;101961.81;5052427;28;20199;-77
2022/02/28 04:36:16;;;;;;;8.50;7.67;;;;;;;-0.61;91.56;101963.97;5052695;28;20228;-76
2022/02/28 04:38:41;;;;;;;13.00;9.40;;;;;;;-0.54;91.69;101972.06;5052468;28;20183;-76
2022/02/28 04:41:07;;;;;;;10.97;8.00;;;;;;;-0.52;90.77;101967.31;5052463;28;20258;-76
2022/02/28 04:43:32;;;;;;;7.93;7.10;;;;;;;-0.69;90.39;101971.38;5052259;28;20183;-76
2022/02/28 04:45:57;;;;;;;10.20;7.20;;;;;;;-0.81;90.17;101968.44;5052389;28;20180;-76
2022/02/28 04:48:23;;;;;;;8.87;7.83;;;;;;;-0.92;90.34;101975.19;5051976;28;20168;-75
2022/02/28 04:50:51;;;;;;;9.60;8.00;;;;;;;-1.60;92.15;101954.47;5052230;28;20203;-75
2022/02/28 04:53:16;;;;;;;8.30;7.10;;;;;;;-1.56;93.98;101963.81;5034245;28;20211;-76
2022/02/28 04:55:42;;;;;;;9.37;7.97;;;;;;;-1.33;94.74;101968.91;5052126;28;20494;-77
2022/02/28 04:58:07;;;;;;;9.07;7.63;;;;;;;-1.12;95.34;101976.91;5051830;28;20171;-76
2022/02/28 05:00:32;;;;;;;8.73;7.87;;;;;;;-1.01;95.18;101979.06;5052329;28;20266;-75
2022/02/28 05:02:58;;;;;;;7.60;6.83;;;;;;;-0.98;94.75;101981.34;5052464;28;20195;-76
2022/02/28 05:05:23;;;;;;;8.10;7.20;;;;;;;-0.88;94.58;101982.81;5057277;28;20203;-76
2022/02/28 05:07:48;;;;;;;7.13;6.37;;;;;;;-0.91;94.28;101982.19;5061974;28;20674;-76
2022/02/28 05:10:14;;;;;;;9.60;7.63;;;;;;;-1.29;93.60;101973.72;5053327;28;20183;-76
2022/02/28 05:12:39;;;;;;;10.20;6.63;;;;;;;-1.33;93.99;101974.28;5053437;28;20195;-76
2022/02/28 05:15:05;;;;;;;9.40;7.57;;;;;;;-1.09;94.26;101976.50;5052213;28;20224;-76
2022/02/28 05:17:30;;;;;;;11.63;8.20;;;;;;;-1.06;93.97;101977.97;5051713;28;20178;-76
2022/02/28 05:19:56;;;;;;;7.63;6.83;;;;;;;-1.04;94.34;101978.59;5051893;28;20175;-76
2022/02/28 05:22:21;;;;;;;10.07;8.93;;;;;;;-1.65;94.32;101973.00;5051921;28;20178;-76
2022/02/28 05:24:46;;;;;;;8.90;7.97;;;;;;;-2.17;95.67;101948.22;5051778;28;20163;-76
2022/02/28 05:27:12;;;;;;;8.83;7.67;;;;;;;-2.49;97.49;101946.81;5051356;28;20167;-76
2022/02/28 05:29:37;;;;;;;9.90;7.03;;;;;;;-2.17;98.77;101958.06;5051689;28;20171;-76
2022/02/28 05:32:03;;;;;;;12.23;8.20;;;;;;;-2.28;99.32;101967.44;5051510;28;20513;-76
2022/02/28 05:34:29;;;;;;;9.30;7.00;;;;;;;-2.06;99.88;101962.09;5051382;28;20647;-76
2022/02/28 05:36:54;;;;;;;9.20;7.90;;;;;;;-2.02;100.00;101968.75;5051363;28;20167;-76
2022/02/28 05:39:19;;;;;;;10.37;8.03;;;;;;;-1.97;100.00;101971.66;5050583;28;20176;-76
2022/02/28 05:41:45;;;;;;;9.43;7.77;;;;;;;-1.84;100.00;101977.16;5051284;28;20179;-75
2022/02/28 05:44:10;;;;;;;10.90;7.93;;;;;;;-1.70;100.00;101978.13;5051314;28;20175;-76
2022/02/28 05:46:36;;;;;;;10.03;7.83;;;;;;;-1.74;100.00;101983.00;5051215;28;20219;-76
2022/02/28 05:49:02;;;;;;;8.20;7.40;;;;;;;-1.92;99.47;101983.47;5051199;28;21068;-76
2022/02/28 05:51:27;;;;;;;9.70;6.87;;;;;;;-1.93;99.83;101978.28;5051230;28;20249;-75
2022/02/28 05:53:53;;;;;;;9.87;8.33;;;;;;;-1.96;99.74;101976.00;5051217;28;20290;-76
2022/02/28 05:56:18;;;;;;;7.80;7.00;;;;;;;-1.98;99.79;101984.22;5051176;28;20540;-75
2022/02/28 05:58:44;;;;;;;11.40;8.50;;;;;;;-2.05;99.91;101980.63;5050883;28;20310;-76
2022/02/28 06:01:09;;;;;;;16.27;9.20;;;;;;;-2.08;100.00;101981.03;5051066;28;20179;-76
2022/02/28 06:03:34;;;;;;;10.50;8.00;;;;;;;-2.13;100.00;101989.63;5051076;28;20183;-76
2022/02/28 06:06:00;;;;;;;12.63;8.97;;;;;;;-2.25;100.00;101982.28;5051036;28;20175;-76
2022/02/28 06:08:26;;;;;;;11.07;7.90;;;;;;;-2.17;100.00;101982.16;5050741;28;20179;-76
2022/02/28 06:10:51;;;;;;;11.73;8.77;;;;;;;-2.20;100.00;101983.38;5050796;28;20186;-75
2022/02/28 06:13:17;;;;;;;12.13;8.93;;;;;;;-2.24;100.00;101987.44;5032776;28;20210;-76
2022/02/28 06:15:42;;;;;;;10.10;8.10;;;;;;;-2.05;100.00;101993.19;5050819;28;20645;-77
2022/02/28 06:18:09;;;;;;;19.33;9.93;;;;;;;-2.16;100.00;101982.00;5050663;28;20183;-76
2022/02/28 06:20:36;;;;;;;10.70;9.17;;;;;;;-2.06;100.00;101992.38;5050660;28;20224;-76
2022/02/28 06:23:02;;;;;;;13.03;8.90;;;;;;;-1.91;100.00;101986.97;5050582;28;20831;-75
2022/02/28 06:25:27;;;;;;;9.90;7.70;;;;;;;-1.67;100.00;102002.66;5050744;28;20556;-76
2022/02/28 06:27:53;;;;;;;10.47;8.40;;;;;;;-1.57;100.00;102005.03;5050418;28;20235;-75
2022/02/28 06:30:19;;;;;;;10.50;8.10;;;;;;;-1.53;100.00;102007.13;5050501;28;20175;-75
2022/02/28 06:32:45;;;;;;;11.30;7.83;;;;;;;-1.46;100.00;102011.69;5050616;28;20650;-76
2022/02/28 06:35:10;;;;;;;11.73;9.00;;;;;;;-1.93;100.00;102003.22;5050866;28;20421;-75
2022/02/28 06:37:35;;;;;;;11.37;8.43;;;;;;;-1.99;100.00;101998.66;5050428;28;20207;-76
2022/02/28 06:40:00;;;;;;;12.10;10.17;;;;;;;-2.11;100.00;102005.50;5050567;28;20182;-75
2022/02/28 06:42:26;;;;;;;12.90;9.90;;;;;;;-2.29;100.00;102002.44;5050396;28;20209;-76
2022/02/28 06:44:51;;;;;;;11.00;9.20;;;;;;;-2.19;100.00;101998.41;5050514;28;20182;-75
2022/02/28 06:47:16;;;;;;;10.93;9.83;;;;;;;-2.03;100.00;101999.19;5050372;28;20179;-76
2022/02/28 06:49:42;;;;;;;11.00;9.90;;;;;;;-1.76;100.00;102016.38;5050237;28;20635;-76
2022/02/28 06:52:07;;;;;;;2.77;2.57;;;;;;;-1.53;100.00;102027.72;5053656;28;20193;-75
2022/02/28 06:54:32;;;;;;;10.70;9.10;;;;;;;-1.37;100.00;102022.09;5054338;28;20179;-76
2022/02/28 06:56:58;;;;;;;9.87;8.37;;;;;;;-1.30;100.00;102025.66;5054389;28;20176;-76
2022/02/28 06:59:23;;;;;;;9.53;8.63;;;;;;;-1.25;100.00;102028.59;5054612;28;20221;-76
2022/02/28 07:01:49;;;;;;;10.87;9.53;;;;;;;-1.16;100.00;102033.78;5054373;28;20206;-78
2022/02/28 07:04:14;;;;;;;12.17;10.27;;;;;;;-1.04;100.00;102033.06;5054685;28;20563;-78
2022/02/28 07:06:39;;;;;;;12.10;9.07;;;;;;;-0.96;100.00;102032.09;5054231;28;20225;-78
2022/02/28 07:09:07;;;;;;;10.17;9.07;;;;;;;-0.90;99.92;102034.81;5054202;28;20186;-78
2022/02/28 07:11:33;;;;;;;9.50;8.03;;;;;;;-0.80;99.43;102039.84;5054082;28;20214;-79
2022/02/28 07:13:59;;;;;;;13.80;9.50;;;;;;;-0.72;98.84;102045.06;5054024;28;20953;-80
2022/02/28 07:16:24;;;;;;;10.90;9.40;;;;;;;-0.66;98.59;102060.38;5054169;28;20179;-81
2022/02/28 07:18:50;;;;;;;12.13;9.27;;;;;;;-0.65;97.96;102055.81;5036171;28;20183;-78
2022/02/28 07:21:15;;;;;;;13.00;9.07;;;;;;;-0.74;98.61;102049.78;5036146;28;20262;-81
2022/02/28 07:23:40;;;;;;;12.73;9.97;;;;;;;-0.71;98.17;102051.25;5054037;28;20183;-78
2022/02/28 07:26:06;;;;;;;10.73;9.33;;;;;;;-0.63;98.20;102053.78;5054104;28;20175;-79
2022/02/28 07:28:31;;;;;;;11.87;9.43;;;;;;;-0.59;97.79;102060.38;5053820;28;20584;-80
2022/02/28 07:30:56;;;;;;;10.90;9.10;;;;;;;-0.61;98.65;102052.53;5053893;28;20194;-80
2022/02/28 07:33:22;;;;;;;13.40;9.77;;;;;;;-0.57;98.36;102058.38;5054097;28;20203;-79
2022/02/28 07:35:47;;;;;;;11.83;9.83;;;;;;;-0.56;97.62;102060.03;5054076;28;20210;-81
2022/02/28 07:38:13;;;;;;;12.20;8.50;;;;;;;-0.62;98.18;102058.09;5053553;28;20179;-81
2022/02/28 07:40:39;;;;;;;12.13;8.87;;;;;;;-0.64;98.83;102058.31;5050270;28;20187;-80
2022/02/28 07:43:04;;;;;;;12.03;9.83;;;;;;;-0.65;99.97;102069.25;5052239;28;20379;-76
2022/02/28 07:45:30;;;;;;;12.50;10.37;;;;;;;-0.65;100.00;102064.72;5053448;28;20194;-75
2022/02/28 07:47:56;;;;;;;13.97;10.43;;;;;;;-0.67;100.00;102076.66;5053362;28;20519;-75
2022/02/28 07:50:21;;;;;;;15.77;11.80;;;;;;;-0.65;100.00;102075.44;5053280;28;20426;-78
2022/02/28 07:52:47;;;;;;;16.60;11.90;;;;;;;-0.62;100.00;102069.66;5053187;28;20241;-75
2022/02/28 07:55:12;;;;;;;12.43;11.23;;;;;;;-0.60;100.00;102072.97;5053405;28;20676;-75
2022/02/28 07:57:38;;;;;;;20.90;12.80;;;;;;;-0.68;100.00;102077.69;5053179;28;20209;-75
2022/02/28 08:00:05;;;;;;;20.30;13.77;;;;;;;-0.75;100.00;102074.94;5053280;28;20178;-75
2022/02/28 08:02:30;;;;;;;16.63;13.07;;;;;;;-0.77;100.00;102076.19;5052169;28;20179;-76
2022/02/28 08:04:55;;;;;;;17.23;12.63;;;;;;;-0.70;100.00;102075.22;5053131;28;20429;-75
2022/02/28 08:07:21;;;;;;;19.93;12.27;;;;;;;-0.66;100.00;102073.78;5052949;28;20187;-75
2022/02/28 08:09:46;;;;;;;18.80;12.50;;;;;;;-0.62;100.00;102085.78;5051487;28;20213;-78
2022/02/28 08:12:11;;;;;;;21.40;14.60;;;;;;;-0.58;100.00;102078.16;5046330;28;20329;-77
2022/02/28 08:14:39;;;;;;;13.87;12.03;;;;;;;-0.52;100.00;102084.59;5046461;28;20817;-78
2022/02/28 08:17:04;;;;;;;22.17;14.00;;;;;;;-0.42;100.00;102083.22;5052722;28;20627;-79
2022/02/28 08:19:29;;;;;;;18.53;13.67;;;;;;;-0.25;100.00;102094.47;5052862;28;20409;-78
2022/02/28 08:21:55;;;;;;;16.03;11.67;;;;;;;-0.11;100.00;102082.75;5052588;28;20167;-76
2022/02/28 08:24:20;;;;;;;19.93;13.57;;;;;;;0.05;100.00;102095.00;5052729;28;20171;-79
2022/02/28 08:26:45;;;;;;;17.07;12.23;;;;;;;0.25;100.00;102092.38;5052686;28;20180;-77
2022/02/28 08:29:11;;;;;;;21.97;13.43;;;;;;;0.42;100.00;102101.72;5052339;28;20196;-79
2022/02/28 08:31:36;;;;;;;16.90;12.60;;;;;;;0.55;100.00;102101.75;5052489;28;20578;-76
2022/02/28 08:34:02;;;;;;;13.90;11.67;;;;;;;0.67;100.00;102103.84;5049421;28;20202;-77
2022/02/28 08:36:28;;;;;;;16.23;11.40;;;;;;;0.76;99.54;102097.25;5051695;28;20643;-77
2022/02/28 08:38:53;;;;;;;14.70;11.77;;;;;;;0.83;97.35;102090.81;5052263;28;20178;-75
2022/02/28 08:41:18;;;;;;;13.63;10.30;;;;;;;0.95;95.96;102090.22;5052219;28;20182;-76
2022/02/28 08:43:44;;;;;;;12.73;9.07;;;;;;;1.06;95.25;102085.03;5026946;28;20308;-79
2022/02/28 08:46:10;;;;;;;16.77;11.03;;;;;;;1.14;93.82;102084.81;5052567;28;20250;-77
2022/02/28 08:48:36;;;;;;;14.43;11.07;;;;;;;1.21;91.96;102087.50;5052162;28;20206;-77
2022/02/28 08:51:01;;;;;;;12.33;9.73;;;;;;;1.31;90.82;102090.63;5052333;28;20571;-72
2022/02/28 08:53:26;;;;;;;12.57;11.27;;;;;;;1.32;89.00;102086.88;5052137;28;20203;-76
2022/02/28 08:55:52;;;;;;;17.47;10.40;;;;;;;1.40;88.31;102094.72;5052383;28;20175;-75
2022/02/28 08:58:17;;;;;;;14.63;9.40;;;;;;;1.52;87.22;102096.78;5052416;28;20174;-74
2022/02/28 09:00:44;;;;;;;11.87;9.63;;;;;;;1.56;86.47;102090.75;5052170;28;20207;-76
2022/02/28 09:03:09;;;;;;;10.40;9.30;;;;;;;1.64;86.01;102089.72;5052110;28;20193;-74
2022/02/28 09:05:36;;;;;;;12.97;9.70;;;;;;;1.75;85.96;102099.84;5052056;28;20254;-72
2022/02/28 09:08:01;;;;;;;12.93;10.23;;;;;;;1.80;85.35;102094.63;5051970;28;20195;-75
2022/02/28 09:10:27;;;;;;;11.93;10.27;;;;;;;1.95;85.89;102103.28;5051921;28;20213;-73
2022/02/28 09:12:52;;;;;;;10.73;9.40;;;;;;;2.04;85.45;102098.50;5051823;28;20194;-73
2022/02/28 09:15:18;;;;;;;13.87;10.47;;;;;;;2.13;85.50;102091.78;5051748;28;20266;-76
2022/02/28 09:17:44;;;;;;;14.23;10.30;;;;;;;2.01;85.03;102088.13;5051570;28;20554;-75
2022/02/28 09:20:09;;;;;;;17.00;11.87;;;;;;;2.07;85.38;102085.41;5051873;28;20532;-73
2022/02/28 09:22:34;;;;;;;13.77;12.37;;;;;;;2.01;85.79;102080.84;5051691;28;20267;-73
2022/02/28 09:25:00;;;;;;;14.50;11.53;;;;;;;1.80;87.30;102073.06;5051814;28;20180;-73
2022/02/28 09:27:26;;;;;;;15.90;12.23;;;;;;;1.93;88.59;102067.63;5051446;28;20650;-74
2022/02/28 09:29:52;;;;;;;18.33;13.23;;;;;;;1.93;88.84;102074.91;5051895;28;20159;-74
2022/02/28 09:32:17;;;;;;;17.73;12.87;;;;;;;2.01;88.71;102082.72;5051414;28;20267;-73
2022/02/28 09:34:42;;;;;;;17.57;13.50;;;;;;;2.08;88.12;102080.84;5051639;28;20207;-74
2022/02/28 09:37:08;;;;;;;14.03;11.87;;;;;;;2.13;88.31;102085.59;5051359;28;20510;-73
2022/02/28 09:39:33;;;;;;;17.73;13.50;;;;;;;2.01;87.58;102080.84;5051556;28;20635;-74
2022/02/28 09:41:59;;;;;;;18.10;13.03;;;;;;;2.15;87.54;102092.41;5051368;28;20216;-74
2022/02/28 09:44:25;;;;;;;15.07;12.90;;;;;;;2.13;87.30;102104.44;5046839;28;20195;-74
2022/02/28 09:46:52;;;;;;;16.67;12.37;;;;;;;2.22;86.97;102108.56;5049910;28;20187;-73
2022/02/28 09:49:17;;;;;;;14.53;13.07;;;;;;;2.24;86.97;102107.31;5049667;28;20325;-73
2022/02/28 09:51:43;;;;;;;15.17;13.57;;;;;;;2.35;86.85;102108.50;5051182;28;20262;-73
2022/02/28 09:54:09;;;;;;;13.80;12.40;;;;;;;2.46;86.49;102115.91;5051356;28;20208;-73
2022/02/28 09:56:34;;;;;;;14.03;11.43;;;;;;;2.52;85.42;102106.13;5051219;28;20179;-73
2022/02/28 09:59:00;;;;;;;23.10;16.67;;;;;;;2.23;87.22;102094.88;5032905;28;20578;-74
2022/02/28 10:01:26;;;;;;;20.90;14.73;;;;;;;2.13;89.26;102094.50;5033170;28;20737;-73
2022/02/28 10:03:51;;;;;;;25.77;14.73;;;;;;;2.19;90.52;102103.63;5051154;28;20207;-73
2022/02/28 10:06:17;;;;;;;19.07;16.07;;;;;;;1.87;91.81;102091.91;5051073;28;20179;-74
2022/02/28 10:08:43;;;;;;;21.20;14.87;;;;;;;1.90;92.98;102103.09;5051102;28;20632;-73
2022/02/28 10:11:29;;;;;;;22.00;14.80;;;;;;;1.75;94.21;102072.91;5033109;28;20699;-75
2022/02/28 10:14:00;;;;;;;26.87;18.27;;;;;;;1.57;96.18;102087.03;5050874;28;20207;-73
2022/02/28 10:16:46;;;;;;;29.23;17.33;;;;;;;1.60;97.24;102083.94;5050844;28;20179;-73
2022/02/28 10:19:22;;;;;;;25.07;16.93;;;;;;;1.69;97.95;102087.19;5050947;28;20210;-73
2022/02/28 10:21:51;;;;;;;29.77;16.97;;;;;;;1.46;98.35;102095.78;5050710;28;20198;-72
2022/02/28 10:24:25;;;;;;;29.83;18.87;;;;;;;1.52;98.93;102092.22;5050245;28;20186;-73
2022/02/28 10:27:00;;;;;;;24.07;16.17;;;;;;;1.70;98.72;102096.94;5049929;28;20532;-72
2022/02/28 10:29:27;;;;;;;23.70;16.23;;;;;;;1.82;98.02;102094.41;5050558;28;20202;-72
2022/02/28 10:32:03;;;;;;;28.30;18.70;;;;;;;1.87;98.28;102098.13;5050789;28;20412;-73
2022/02/28 10:34:30;;;;;;;26.20;15.63;;;;;;;1.74;98.49;102095.50;5032929;28;20202;-73
2022/02/28 10:36:55;;;;;;;29.13;15.53;;;;;;;1.93;98.61;102102.69;5050502;28;20175;-72
2022/02/28 10:39:26;;;;;;;23.80;15.40;;;;;;;2.00;97.87;102097.25;5051017;28;20201;-72
2022/02/28 10:41:53;;;;;;;31.23;18.03;;;;;;;1.90;97.40;102096.91;5032665;28;20271;-72
2022/02/28 10:44:20;;;;;;;27.40;17.70;;;;;;;1.93;97.19;102101.84;5050442;28;20171;-73
2022/02/28 10:46:47;;;;;;;28.77;16.90;;;;;;;1.82;97.58;102091.72;5050386;28;20266;-72
2022/02/28 10:49:21;;;;;;;30.50;19.10;;;;;;;1.78;97.65;102094.84;5050723;28;20171;-72
2022/02/28 10:51:47;;;;;;;28.03;17.80;;;;;;;1.82;98.14;102097.13;5050526;28;20241;-72
2022/02/28 10:54:32;;;;;;;27.00;15.57;;;;;;;2.00;98.38;102092.69;5050471;28;20793;-73
2022/02/28 10:57:10;;;;;;;24.20;16.43;;;;;;;1.97;97.87;102094.97;5049620;28;20195;-73
2022/02/28 10:59:49;;;;;;;28.80;15.37;;;;;;;1.91;97.61;102087.75;5049903;28;20224;-73
2022/02/28 11:02:23;;;;;;;29.80;15.30;;;;;;;2.14;97.46;102090.75;5049969;28;20653;-73
2022/02/28 11:05:07;;;;;;;24.43;17.20;;;;;;;2.08;97.19;102083.53;5050403;28;20611;-73
2022/02/28 11:07:40;;;;;;;23.67;16.10;;;;;;;2.17;96.43;102081.41;5031874;28;20183;-73
2022/02/28 11:10:06;;;;;;;22.63;14.70;;;;;;;2.09;96.35;102075.22;5049995;28;20457;-73
2022/02/28 11:12:32;;;;;;;19.47;15.87;;;;;;;2.33;95.77;102080.94;5049815;28;20650;-73
2022/02/28 11:15:00;;;;;;;30.67;18.50;;;;;;;2.42;95.20;102076.91;5050284;28;20183;-73